createdAt,value
2022-12-18T00:02:04.618Z,27.17
2022-12-18T00:04:38.321Z,31.08
2022-12-18T00:07:05.445Z,31.10
2022-12-18T00:09:40.571Z,32.97
2022-12-18T00:14:52.360Z,29.10
2022-12-18T13:52:04.237Z,10.35
2022-12-18T13:54:36.871Z,8.65
2022-12-18T13:57:41.209Z,8.55
2022-12-18T14:00:20.406Z,8.77
2022-12-18T14:02:54.193Z,8.70
2022-12-18T14:05:30.707Z,10.32
2022-12-18T14:08:09.328Z,9.75
2022-12-18T14:10:48.627Z,10.20
2022-12-18T14:13:26.129Z,11.00
2022-12-18T14:15:53.397Z,10.85
2022-12-18T14:18:31.184Z,11.07
2022-12-18T14:21:02.655Z,10.18
2022-12-18T14:23:50.302Z,11.35
2022-12-18T14:26:26.280Z,11.15
2022-12-18T14:29:01.103Z,11.82
2022-12-18T14:31:37.040Z,12.52
2022-12-18T14:34:04.422Z,12.55
2022-12-18T14:36:38.071Z,13.73
2022-12-18T14:39:05.476Z,13.65
2022-12-18T14:41:41.184Z,12.60
2022-12-18T14:44:12.565Z,13.13
2022-12-18T14:46:50.189Z,13.57
2022-12-18T14:49:33.949Z,13.23
2022-12-18T14:52:15.219Z,11.43
2022-12-18T14:54:48.046Z,12.15
2022-12-18T14:57:41.062Z,13.45
2022-12-18T15:00:16.190Z,12.32
2022-12-18T15:02:44.640Z,12.43
2022-12-18T15:05:21.263Z,11.52
2022-12-18T15:07:53.134Z,11.57
2022-12-18T15:10:20.994Z,12.27
2022-12-18T15:12:55.106Z,12.00
2022-12-18T15:15:34.717Z,11.90
2022-12-18T15:18:09.106Z,11.95
2022-12-18T15:20:42.287Z,11.73
2022-12-18T15:23:39.624Z,13.95
2022-12-18T15:26:09.814Z,14.80
2022-12-18T15:28:53.435Z,13.82
2022-12-18T15:31:35.742Z,12.38
2022-12-18T15:34:34.298Z,14.90
2022-12-18T15:37:01.605Z,12.67
2022-12-18T15:39:28.702Z,12.63
2022-12-18T15:42:21.412Z,14.32
2022-12-18T15:44:49.471Z,12.82
2022-12-18T15:47:16.551Z,15.27
2022-12-18T15:49:50.144Z,15.60
2022-12-18T15:52:26.878Z,14.73
2022-12-18T15:55:19.282Z,14.85
2022-12-18T15:57:53.108Z,16.85
2022-12-18T16:00:34.261Z,13.77
2022-12-18T16:03:01.617Z,14.43
2022-12-18T16:08:02.323Z,16.80
2022-12-18T16:10:29.710Z,22.65
2022-12-18T16:13:10.206Z,17.83
2022-12-18T16:15:37.450Z,19.20
2022-12-18T16:18:11.106Z,16.25
2022-12-18T16:20:39.961Z,15.40
2022-12-18T16:23:07.082Z,15.82
2022-12-18T16:25:41.264Z,15.80
2022-12-18T16:28:08.515Z,17.08
2022-12-18T16:30:42.314Z,19.67
2022-12-18T16:33:10.181Z,19.15
2022-12-18T16:35:38.180Z,19.85
2022-12-18T16:38:12.391Z,20.02
2022-12-18T16:40:59.522Z,25.05
2022-12-18T16:43:33.131Z,21.42
2022-12-18T16:46:00.730Z,21.73
2022-12-18T16:51:05.446Z,26.48
2022-12-18T16:53:41.745Z,24.95
2022-12-18T16:56:09.186Z,30.08
2022-12-18T16:58:49.286Z,32.25
2022-12-18T17:01:16.591Z,42.97
2022-12-18T17:03:44.437Z,30.77
2022-12-18T17:06:20.168Z,30.85
2022-12-18T17:08:47.463Z,33.88
2022-12-18T17:11:21.061Z,65.53
2022-12-18T17:13:48.353Z,46.33
2022-12-18T17:16:22.127Z,40.55
2022-12-18T17:18:49.666Z,37.10
2022-12-18T17:21:16.993Z,39.05
2022-12-18T17:23:51.174Z,42.58
2022-12-18T17:26:18.345Z,42.33
2022-12-18T17:28:52.307Z,41.65
2022-12-18T17:31:20.563Z,38.63
2022-12-18T17:33:47.890Z,44.33
2022-12-18T17:36:22.280Z,50.08
2022-12-18T17:38:53.140Z,44.20
2022-12-18T17:41:27.266Z,46.67
2022-12-18T17:44:01.883Z,44.55
2022-12-18T17:46:37.284Z,53.50
2022-12-18T17:49:04.542Z,48.10
2022-12-18T17:51:31.676Z,47.45
2022-12-18T17:54:05.401Z,44.45
2022-12-18T17:56:32.928Z,50.53
2022-12-18T17:59:13.152Z,46.83
2022-12-18T18:01:47.301Z,45.70
2022-12-18T18:04:21.407Z,47.95
2022-12-18T18:06:48.641Z,50.10
2022-12-18T18:09:16.936Z,48.95
2022-12-18T18:12:10.414Z,54.97
2022-12-18T18:14:37.796Z,53.33
2022-12-18T18:17:05.906Z,51.00
2022-12-18T18:19:40.146Z,59.47
2022-12-18T18:22:07.884Z,57.03
2022-12-18T18:24:42.327Z,57.75
2022-12-18T18:27:09.483Z,52.47
2022-12-18T18:29:36.601Z,59.35
2022-12-18T18:32:10.274Z,72.75
2022-12-18T18:34:40.617Z,61.58
2022-12-18T18:37:14.324Z,60.60
2022-12-18T18:39:41.586Z,65.40
2022-12-18T18:42:08.786Z,58.83
2022-12-18T18:44:45.863Z,65.57
2022-12-18T18:47:16.040Z,60.35
2022-12-18T18:49:50.291Z,61.45
2022-12-18T18:52:17.466Z,65.03
2022-12-18T18:55:10.683Z,59.78
2022-12-18T18:57:38.293Z,58.53
2022-12-18T19:00:12.628Z,60.72
2022-12-18T19:02:46.284Z,70.13
2022-12-18T19:05:13.474Z,59.33
2022-12-18T19:07:47.089Z,72.53
2022-12-18T19:10:14.308Z,75.75
2022-12-18T19:13:06.101Z,78.32
2022-12-18T19:15:34.547Z,70.72
2022-12-18T19:18:01.961Z,63.65
2022-12-18T19:20:36.171Z,65.97
2022-12-18T19:23:03.587Z,63.88
2022-12-18T19:25:42.177Z,57.92
2022-12-18T19:28:13.493Z,67.38
2022-12-18T19:30:57.617Z,66.85
2022-12-18T19:33:42.437Z,64.05
2022-12-18T19:36:18.494Z,76.55
2022-12-18T19:38:46.216Z,72.80
2022-12-18T19:41:14.822Z,69.57
2022-12-18T19:43:48.171Z,70.60
2022-12-18T19:46:16.797Z,69.43
2022-12-18T19:48:51.228Z,68.10
2022-12-18T19:51:19.910Z,60.90
2022-12-18T19:53:47.323Z,63.78
2022-12-18T19:56:23.275Z,64.95
2022-12-18T19:58:57.115Z,61.75
2022-12-18T20:01:31.411Z,65.15
2022-12-18T20:03:59.774Z,64.47
2022-12-18T20:06:29.858Z,54.58
2022-12-18T20:09:05.410Z,62.55
2022-12-18T20:11:33.527Z,67.13
2022-12-18T20:14:11.329Z,66.43
2022-12-18T20:16:38.820Z,61.03
2022-12-18T20:19:06.299Z,65.57
2022-12-18T20:21:40.414Z,62.47
2022-12-18T20:24:08.712Z,75.55
2022-12-18T20:26:35.888Z,66.50
2022-12-18T20:29:09.225Z,56.55
2022-12-18T20:31:36.888Z,58.30
2022-12-18T20:34:11.262Z,54.15
2022-12-18T20:36:45.380Z,53.95
2022-12-18T20:39:26.295Z,50.83
2022-12-18T20:41:56.167Z,50.83
2022-12-18T20:44:30.310Z,54.60
2022-12-18T20:47:00.315Z,49.05
2022-12-18T20:49:38.317Z,52.17
2022-12-18T20:52:08.297Z,55.03
2022-12-18T20:57:09.199Z,48.30
2022-12-18T20:59:47.867Z,53.97
2022-12-18T21:02:22.490Z,52.47
2022-12-18T21:04:50.104Z,52.50
2022-12-18T21:07:24.406Z,53.28
2022-12-18T21:09:51.557Z,53.15
2022-12-18T21:13:00.211Z,53.95
2022-12-18T21:15:37.127Z,52.38
2022-12-18T21:18:11.282Z,50.17
2022-12-18T21:20:45.551Z,53.05
2022-12-18T21:23:16.506Z,50.55
2022-12-18T21:25:45.343Z,48.13
2022-12-18T21:28:22.302Z,46.00
2022-12-18T21:30:50.417Z,43.80
2022-12-18T21:33:24.221Z,41.75
2022-12-18T21:35:51.522Z,39.03
2022-12-18T21:38:25.390Z,39.22
2022-12-18T21:40:52.630Z,41.17
2022-12-18T21:43:45.508Z,43.10
2022-12-18T21:46:12.814Z,39.72
2022-12-18T21:48:40.188Z,35.10
2022-12-18T21:51:14.292Z,32.33
2022-12-18T21:53:41.446Z,30.55
2022-12-18T21:56:15.499Z,31.02
2022-12-18T21:58:57.250Z,28.85
2022-12-18T22:01:37.756Z,25.90
2022-12-18T22:04:05.293Z,27.95
2022-12-18T22:06:39.397Z,26.63
2022-12-18T22:09:06.940Z,25.20
2022-12-18T22:14:08.267Z,21.88
2022-12-18T22:16:35.691Z,23.17
2022-12-18T22:19:10.371Z,18.50
2022-12-18T22:21:38.772Z,20.77
2022-12-18T22:24:07.325Z,19.15
2022-12-18T22:26:42.209Z,18.00
2022-12-18T22:29:39.216Z,19.85
2022-12-18T22:32:13.218Z,17.63
2022-12-18T22:34:49.131Z,18.70
2022-12-18T22:37:16.284Z,17.13
2022-12-18T22:39:50.164Z,17.55
2022-12-18T22:42:17.642Z,16.70
2022-12-18T22:44:51.155Z,17.00
2022-12-18T22:47:18.375Z,16.55
2022-12-18T22:49:45.750Z,15.70
2022-12-18T22:52:19.409Z,15.57
2022-12-18T22:54:49.753Z,14.75
2022-12-18T22:57:16.833Z,14.00
2022-12-18T22:59:50.264Z,13.77
2022-12-18T23:02:18.192Z,14.13
2022-12-18T23:04:45.838Z,13.55
2022-12-18T23:09:46.942Z,13.30
2022-12-18T23:12:26.265Z,13.13
2022-12-18T23:14:53.500Z,13.73
2022-12-18T23:17:20.597Z,13.13
2022-12-18T23:19:54.231Z,14.02
2022-12-18T23:22:21.381Z,13.05
2022-12-18T23:24:55.315Z,13.05
2022-12-18T23:27:22.474Z,12.20
2022-12-18T23:29:56.249Z,13.27
2022-12-18T23:32:25.627Z,13.18
2022-12-18T23:34:52.739Z,12.95
2022-12-18T23:37:50.290Z,12.20
2022-12-18T23:40:13.607Z,12.73
2022-12-18T23:42:48.361Z,11.52
2022-12-18T23:45:17.545Z,12.27
2022-12-18T23:47:45.173Z,11.73
2022-12-18T23:50:27.723Z,10.90
2022-12-18T23:52:56.379Z,12.73
2022-12-18T23:55:32.370Z,11.73
2022-12-18T23:58:19.168Z,12.75
